createdAt,value
2022-11-05T00:00:37.421Z,99142.31
2022-11-05T00:10:38.996Z,99147.44
2022-11-05T00:20:40.451Z,99152.38
2022-11-05T00:30:41.843Z,99170.50
2022-11-05T00:40:43.253Z,99176.44
2022-11-05T00:50:44.632Z,99196.22
2022-11-05T01:01:04.202Z,99202.81
2022-11-05T01:11:32.874Z,99218.06
2022-11-05T01:21:34.399Z,99227.75
2022-11-05T01:31:35.905Z,99227.59
2022-11-05T01:41:37.437Z,99238.94
2022-11-05T01:51:38.970Z,99257.53
2022-11-05T02:01:40.472Z,99259.19
2022-11-05T02:11:41.926Z,99269.94
2022-11-05T02:22:08.378Z,99272.59
2022-11-05T02:32:31.671Z,99278.59
2022-11-05T02:42:55.813Z,99289.50
2022-11-05T02:53:09.642Z,99285.38
2022-11-05T03:03:24.711Z,99283.72
2022-11-05T03:13:40.788Z,99285.75
2022-11-05T03:23:52.985Z,99282.59
2022-11-05T03:33:54.552Z,99286.72
2022-11-05T03:44:33.976Z,99297.97
2022-11-05T03:54:35.434Z,99299.19
2022-11-05T04:04:37.040Z,99313.81
2022-11-05T04:14:39.988Z,99332.94
2022-11-05T04:24:41.533Z,99343.06
2022-11-05T04:34:42.926Z,99350.78
2022-11-05T04:44:44.876Z,99344.97
2022-11-05T04:54:46.264Z,99349.88
2022-11-05T05:04:47.825Z,99344.88
2022-11-05T05:14:49.463Z,99350.59
2022-11-05T05:24:52.903Z,99356.34
2022-11-05T05:34:54.525Z,99368.28
2022-11-05T05:44:55.938Z,99381.84
2022-11-05T05:54:57.471Z,99376.00
2022-11-05T06:04:58.893Z,99404.84
2022-11-05T06:15:00.287Z,99415.56
2022-11-05T06:25:01.754Z,99423.59
2022-11-05T06:35:03.351Z,99413.06
2022-11-05T06:45:05.176Z,99423.97
2022-11-05T06:55:06.729Z,99434.88
2022-11-05T07:05:10.976Z,99454.94
2022-11-05T07:15:12.383Z,99464.63
2022-11-05T07:25:13.751Z,99476.28
2022-11-05T07:35:15.215Z,99485.59
2022-11-05T07:45:16.744Z,99482.59
2022-11-05T07:55:18.912Z,99501.25
2022-11-05T08:05:20.281Z,99502.03
2022-11-05T08:15:22.059Z,99520.81
2022-11-05T08:25:23.748Z,99515.91
2022-11-05T08:35:26.421Z,99521.78
2022-11-05T08:45:27.874Z,99522.28
2022-11-05T08:55:29.410Z,99534.38
2022-11-05T09:05:31.199Z,99549.88
2022-11-05T09:15:33.262Z,99547.09
2022-11-05T09:25:34.638Z,99543.69
2022-11-05T09:35:38.683Z,99550.88
2022-11-05T09:45:40.134Z,99558.28
2022-11-05T09:55:43.234Z,99561.06
2022-11-05T10:05:44.716Z,99560.31
2022-11-05T10:16:10.182Z,99567.25
2022-11-05T10:26:13.827Z,99573.22
2022-11-05T10:36:30.512Z,99572.13
2022-11-05T10:46:42.286Z,99587.75
2022-11-05T10:56:44.086Z,99592.44
2022-11-05T11:06:50.263Z,99592.16
2022-11-05T11:16:53.269Z,99582.34
2022-11-05T11:26:54.638Z,99574.84
2022-11-05T11:37:05.429Z,99569.28
2022-11-05T11:47:12.827Z,99574.22
2022-11-05T11:57:27.466Z,99563.59
2022-11-05T12:07:57.912Z,99562.28
2022-11-05T12:18:06.000Z,99558.44
2022-11-05T12:28:13.910Z,99548.03
2022-11-05T12:38:36.620Z,99552.94
2022-11-05T12:48:53.133Z,99549.41
2022-11-05T12:59:12.705Z,99533.69
2022-11-05T13:09:39.850Z,99534.88
2022-11-05T13:19:46.620Z,99525.38
2022-11-05T13:29:50.133Z,99512.94
2022-11-05T13:39:57.078Z,99524.72
2022-11-05T13:50:17.018Z,99526.56
2022-11-05T14:00:22.489Z,99500.28
2022-11-05T14:10:31.168Z,99495.69
2022-11-05T14:20:32.378Z,99498.94
2022-11-05T14:30:41.069Z,99496.63
2022-11-05T14:40:43.766Z,99494.69
2022-11-05T14:50:45.317Z,99480.19
2022-11-05T15:00:47.491Z,99465.66
2022-11-05T15:10:48.870Z,99468.91
2022-11-05T15:20:53.159Z,99477.53
2022-11-05T15:30:59.698Z,99494.34
2022-11-05T15:41:06.352Z,99497.78
2022-11-05T15:51:08.849Z,99486.97
2022-11-05T16:01:39.446Z,99486.16
2022-11-05T16:11:40.946Z,99492.22
2022-11-05T16:21:54.868Z,99511.56
2022-11-05T16:31:56.959Z,99502.88
2022-11-05T16:41:58.344Z,99491.69
2022-11-05T16:51:59.961Z,99502.78
2022-11-05T17:02:01.575Z,99503.97
2022-11-05T17:12:03.101Z,99508.22
2022-11-05T17:22:04.637Z,99521.81
2022-11-05T17:32:06.258Z,99523.19
2022-11-05T17:42:07.647Z,99524.34
2022-11-05T17:52:09.041Z,99520.19
2022-11-05T18:02:11.433Z,99530.25
2022-11-05T18:12:12.983Z,99528.97
2022-11-05T18:22:16.164Z,99527.31
2022-11-05T18:32:17.569Z,99537.19
2022-11-05T18:42:19.747Z,99532.22
2022-11-05T18:52:21.131Z,99527.66
2022-11-05T19:02:22.578Z,99530.34
2022-11-05T19:12:24.106Z,99514.63
2022-11-05T19:22:25.885Z,99515.00
2022-11-05T19:32:27.603Z,99540.13
2022-11-05T19:42:31.354Z,99534.03
2022-11-05T19:52:32.748Z,99530.00
2022-11-05T20:02:34.217Z,99540.72
2022-11-05T20:12:36.000Z,99527.31
2022-11-05T20:22:38.267Z,99528.91
2022-11-05T20:32:39.653Z,99531.84
2022-11-05T20:42:41.062Z,99545.75
2022-11-05T20:52:42.465Z,99543.06
2022-11-05T21:02:44.019Z,99518.31
2022-11-05T21:12:45.672Z,99531.03
2022-11-05T21:22:47.355Z,99533.91
2022-11-05T21:32:48.751Z,99552.66
2022-11-05T21:42:50.276Z,99553.19
2022-11-05T21:53:10.234Z,99537.09
2022-11-05T22:03:11.606Z,99525.56
2022-11-05T22:13:12.979Z,99491.72
2022-11-05T22:23:14.354Z,99491.06
2022-11-05T22:33:15.732Z,99481.75
2022-11-05T22:43:17.111Z,99469.34
2022-11-05T22:53:18.520Z,99466.22
2022-11-05T23:03:19.961Z,99450.50
2022-11-05T23:13:21.369Z,99456.72
2022-11-05T23:23:41.388Z,99440.97
2022-11-05T23:33:42.788Z,99442.34
2022-11-05T23:44:02.910Z,99433.97
2022-11-05T23:54:04.295Z,99416.41
